Amalga, UT

1:50 AM MDT on August 23, 2014 (GMT -0600)
Northwest Smithfield | Change Station
CLOSE
Current Station
Personal Weather Station
Location: Smithfield, UT
Elevation: 4590 ft
Nearby Weather Stations

Elev 4590 ft 41.84 °N, 111.84 °W | Updated 2 minutes ago

Mostly Cloudy
Mostly Cloudy
57.9 °F
Feels Like 57.9 °F
N
0.0
Wind Variable Wind from SSE

Today
High -- | Low -- °F
--% Chance of Precip.
Yesterday
High -- | Low -- °F
Precip. -- in
6:44 AM 8:15 PM
Waning Crescent, 5% visible
Pressure 29.89 in
Visibility 10.0 miles
Clouds Few 6000 ft
Scattered Clouds 7000 ft
Mostly Cloudy 11000 ft
Dew Point 50 °F
Humidity 75%
Rainfall 0.00 in
Snow Depth Not available.
UV 0 out of 12
Pollen 7.90 out of 12
PM2.5 Good
Flu Activity Not available.
METAR KLGU 230651Z AUTO 08009KT 10SM FEW060 SCT070 BKN110 13/09 A3000 RMK AO2 RAE47 SLP121 P0011 T01330094 402000122

More Conditions Fewer Conditions

Pressure 29.89 in
Visibility 10.0 miles
Clouds Few 6000 ft
Scattered Clouds 7000 ft
Mostly Cloudy 11000 ft
Dew Point 50 °F
Humidity 75%
Rainfall 0.00 in
Snow Depth Not available.
UV 0 out of 12
Pollen 7.90 out of 12
PM2.5 Good
Flu Activity Not available.
METAR KLGU 230651Z AUTO 08009KT 10SM FEW060 SCT070 BKN110 13/09 A3000 RMK AO2 RAE47 SLP121 P0011 T01330094 402000122

More Conditions Fewer Conditions

10-Day Weather Forecast

Almanac

Astronomy

Aug. 23, 2014 Rise Set
Actual Time 6:44 AM MDT 8:15 PM MDT
Civil Twilight 6:14 AM MDT 8:44 PM MDT
Nautical Twilight 5:39 AM MDT 9:19 PM MDT
Astronomical Twilight 5:01 AM MDT 9:57 PM MDT
Moon 5:03 AM MDT 7:02 PM MDT
Length of Visible Light 14h 29m
Length of Day
13h 31m
Tomorrow will be 2m 36s shorter.
Waning Crescent, 5% of the Moon is Illuminated
Today
Waning Crescent
Aug 25
New
Sep 2
First Quarter
Sep 8
Full
Sep 15
Last Quarter

Today's Extremes

State Highs State Lows

Community

WunderPhotos

Upload Photos

1,746,384 photos uploaded!

WunderBlogs® & News

By Dr. Jeff Masters
Director of Meteorology, Weather Underground
By Kari Strenfel
Meteorologist, Weather Underground
By Christopher C. Burt
Weather Historian, Weather Underground
August 23, 2014
August 23, 2014
August 22, 2014

Nearby

Air Quality

  Air Quality AQ Index Pollutant
Yesterday Good
OZONE
Yesterday Good
PM2.5
Current Good
PM2.5

Snow Depth

Station Depth Elevation
Tony Grove Lake 0 in 8400 ft
Temple Fork 1 in 7406 ft
Little Bear 0 in 6550 ft
Ben Lomond Trail 2 in 6000 ft
Monte Cristo 0 in 8960 ft

Earthquake Activity

City Distance Mag. Time & Date
No recent earthquake activity has been reported nearby.
Minimum magnitude displayed is 2.5.

Coastal Water Temperatures

Place Temperature
No Stations Reporting

Nearby Weather Stations